createdAt,value
2022-09-12T00:00:50.916Z,92241.25
2022-09-12T00:03:17.479Z,92250.97
2022-09-12T00:05:45.521Z,92246.13
2022-09-12T00:08:13.035Z,92246.13
2022-09-12T00:10:41.123Z,92240.53
2022-09-12T00:13:08.661Z,92243.91
2022-09-12T00:15:43.528Z,92250.25
2022-09-12T00:18:14.564Z,92253.03
2022-09-12T00:20:46.051Z,92250.25
2022-09-12T00:23:13.135Z,92254.38
2022-09-12T00:25:47.195Z,92255.69
2022-09-12T00:28:15.712Z,92247.31
2022-09-12T00:30:43.615Z,92247.31
2022-09-12T00:33:11.430Z,92251.47
2022-09-12T00:35:42.395Z,92252.91
2022-09-12T00:38:08.900Z,92247.31
2022-09-12T00:40:35.980Z,92252.91
2022-09-12T00:43:02.471Z,92248.06
2022-09-12T00:45:30.306Z,92248.66
2022-09-12T00:48:01.056Z,92238.81
2022-09-12T00:50:28.041Z,92237.47
2022-09-12T00:53:08.389Z,92240.28
2022-09-12T00:55:41.955Z,92239.53
2022-09-12T00:58:18.920Z,92234.69
2022-09-12T01:00:47.228Z,92231.91
2022-09-12T01:03:17.531Z,92234.69
2022-09-12T01:06:01.368Z,92223.50
2022-09-12T01:08:29.118Z,92232.50
2022-09-12T01:10:57.451Z,92222.03
2022-09-12T01:13:24.439Z,92215.00
2022-09-12T01:15:50.990Z,92216.44
2022-09-12T01:18:42.349Z,92210.84
2022-09-12T01:21:16.617Z,92203.81
2022-09-12T01:24:33.614Z,92198.22
2022-09-12T01:27:14.842Z,92203.81
2022-09-12T01:29:59.791Z,92198.22
2022-09-12T01:32:57.123Z,92192.66
2022-09-12T01:35:32.535Z,92175.75
2022-09-12T01:38:11.857Z,92185.59
2022-09-12T01:40:51.006Z,92184.88
2022-09-12T01:43:36.232Z,92186.19
2022-09-12T01:46:15.074Z,92183.41
2022-09-12T01:49:15.828Z,92181.34
2022-09-12T01:51:57.088Z,92178.53
2022-09-12T01:54:33.964Z,92183.41
2022-09-12T01:57:08.722Z,92178.53
2022-09-12T01:59:41.070Z,92172.22
2022-09-12T02:02:24.081Z,92178.53
2022-09-12T02:05:02.640Z,92177.81
2022-09-12T02:07:37.948Z,92183.41
2022-09-12T02:10:15.260Z,92188.28
2022-09-12T02:12:52.013Z,92177.09
2022-09-12T02:15:23.918Z,92175.63
2022-09-12T02:17:52.062Z,92175.63
2022-09-12T02:20:46.989Z,92178.41
2022-09-12T02:23:17.577Z,92181.22
2022-09-12T02:25:47.634Z,92178.41
2022-09-12T02:28:18.181Z,92174.16
2022-09-12T02:31:09.983Z,92179.75
2022-09-12T02:33:53.303Z,92176.97
2022-09-12T02:36:50.199Z,92186.06
2022-09-12T02:39:21.288Z,92179.00
2022-09-12T02:41:51.707Z,92179.75
2022-09-12T02:44:19.019Z,92178.25
2022-09-12T02:46:48.680Z,92176.97
2022-09-12T02:49:17.089Z,92181.03
2022-09-12T02:51:45.467Z,92178.25
2022-09-12T02:54:13.827Z,92178.25
2022-09-12T02:56:42.838Z,92177.53
2022-09-12T02:59:11.956Z,92172.66
2022-09-12T03:01:41.607Z,92176.81
2022-09-12T03:04:43.667Z,92174.00
2022-09-12T03:07:43.111Z,92170.47
2022-09-12T03:10:33.115Z,92174.00
2022-09-12T03:13:25.962Z,92171.22
2022-09-12T03:16:23.485Z,92165.63
2022-09-12T03:19:22.314Z,92167.69
2022-09-12T03:22:00.895Z,92162.69
2022-09-12T03:24:38.730Z,92169.03
2022-09-12T03:27:13.978Z,92162.69
2022-09-12T03:29:42.701Z,92164.16
2022-09-12T03:32:09.207Z,92167.56
2022-09-12T03:34:35.779Z,92161.97
2022-09-12T03:37:02.668Z,92162.69
2022-09-12T03:39:29.237Z,92166.84
2022-09-12T03:41:55.899Z,92161.25
2022-09-12T03:44:23.342Z,92166.84
2022-09-12T03:46:50.195Z,92161.25
2022-09-12T03:49:17.617Z,92160.50
2022-09-12T03:51:44.205Z,92161.25
2022-09-12T03:54:10.990Z,92154.94
2022-09-12T03:56:37.543Z,92160.50
2022-09-12T03:59:07.196Z,92155.66
2022-09-12T04:01:34.509Z,92153.59
2022-09-12T04:04:01.027Z,92155.66
2022-09-12T04:06:27.597Z,92161.25
2022-09-12T04:08:55.226Z,92152.88
2022-09-12T04:11:22.725Z,92159.78
2022-09-12T04:13:49.753Z,92158.31
2022-09-12T04:16:17.666Z,92159.03
2022-09-12T04:18:44.842Z,92162.56
2022-09-12T04:21:13.074Z,92163.91
2022-09-12T04:23:39.775Z,92163.91
2022-09-12T04:26:06.934Z,92165.22
2022-09-12T04:28:35.121Z,92159.66
2022-09-12T04:31:15.588Z,92158.19
2022-09-12T04:33:42.208Z,92163.03
2022-09-12T04:36:12.222Z,92154.66
2022-09-12T04:38:39.055Z,92161.00
2022-09-12T04:41:17.956Z,92156.72
2022-09-12T04:43:46.576Z,92159.50
2022-09-12T04:46:16.631Z,92148.34
2022-09-12T04:48:44.089Z,92158.81
2022-09-12T04:51:13.669Z,92158.06
2022-09-12T04:53:40.896Z,92158.06
2022-09-12T04:56:10.821Z,92159.50
2022-09-12T04:58:38.694Z,92158.06
2022-09-12T05:01:10.509Z,92163.66
2022-09-12T05:03:40.396Z,92168.50
2022-09-12T05:06:08.936Z,92171.28
2022-09-12T05:08:35.943Z,92178.97
2022-09-12T05:11:05.108Z,92173.38
2022-09-12T05:13:31.798Z,92169.09
2022-09-12T05:16:02.192Z,92178.97
2022-09-12T05:18:31.471Z,92184.53
2022-09-12T05:21:00.223Z,92184.53
2022-09-12T05:23:27.746Z,92191.59
2022-09-12T05:25:56.496Z,92183.06
2022-09-12T05:28:24.091Z,92177.47
2022-09-12T05:31:04.521Z,92183.81
2022-09-12T05:33:32.175Z,92183.06
2022-09-12T05:35:59.484Z,92178.97
2022-09-12T05:38:26.095Z,92177.47
2022-09-12T05:40:52.589Z,92185.88
2022-09-12T05:43:20.355Z,92186.47
2022-09-12T05:45:46.929Z,92194.25
2022-09-12T05:48:13.599Z,92191.31
2022-09-12T05:50:40.106Z,92192.06
2022-09-12T05:53:06.581Z,92193.50
2022-09-12T05:55:33.186Z,92196.91
2022-09-12T05:57:59.745Z,92196.91
2022-09-12T06:00:29.300Z,92196.91
2022-09-12T06:02:58.062Z,92198.25
2022-09-12T06:05:24.964Z,92196.91
2022-09-12T06:07:51.720Z,92202.47
2022-09-12T06:10:18.210Z,92201.03
2022-09-12T06:12:44.766Z,92196.19
2022-09-12T06:15:11.614Z,92194.09
2022-09-12T06:17:38.175Z,92189.13
2022-09-12T06:20:04.966Z,92190.59
2022-09-12T06:22:31.672Z,92201.03
2022-09-12T06:24:58.257Z,92191.31
2022-09-12T06:27:24.763Z,92195.44
2022-09-12T06:29:51.675Z,92192.66
2022-09-12T06:32:18.168Z,92196.19
2022-09-12T06:34:47.674Z,92189.88
2022-09-12T06:37:14.306Z,92188.38
2022-09-12T06:39:40.826Z,92184.88
2022-09-12T06:42:07.628Z,92177.97
2022-09-12T06:44:34.118Z,92182.81
2022-09-12T06:47:00.764Z,92175.75
2022-09-12T06:49:27.239Z,92168.84
2022-09-12T06:51:53.743Z,92159.00
2022-09-12T06:54:20.364Z,92164.59
2022-09-12T06:56:46.957Z,92164.59
2022-09-12T06:59:13.885Z,92164.59
2022-09-12T07:01:41.801Z,92161.06
2022-09-12T07:04:08.950Z,92163.84
2022-09-12T07:06:41.054Z,92170.19
2022-09-12T07:09:12.387Z,92164.59
2022-09-12T07:11:40.184Z,92161.81
2022-09-12T07:14:09.859Z,92164.59
2022-09-12T07:16:36.741Z,92159.00
2022-09-12T07:19:05.235Z,92157.53
2022-09-12T07:21:32.024Z,92153.41
2022-09-12T07:23:58.600Z,92149.16
2022-09-12T07:26:27.482Z,92146.34
2022-09-12T07:29:07.959Z,92140.78
2022-09-12T07:31:39.717Z,92134.47
2022-09-12T07:34:06.871Z,92130.94
2022-09-12T07:36:33.438Z,92127.56
2022-09-12T07:39:00.047Z,92125.34
2022-09-12T07:41:29.084Z,92124.03
2022-09-12T07:43:58.223Z,92122.56
2022-09-12T07:46:26.583Z,92130.34
2022-09-12T07:48:54.591Z,92133.13
2022-09-12T07:51:22.160Z,92124.03
2022-09-12T07:53:51.899Z,92122.56
2022-09-12T07:56:19.945Z,92118.44
2022-09-12T07:58:47.252Z,92117.72
2022-09-12T08:01:13.639Z,92106.56
2022-09-12T08:03:42.123Z,92113.59
2022-09-12T08:06:15.744Z,92110.06
2022-09-12T08:08:43.064Z,92107.25
2022-09-12T08:11:10.934Z,92101.66
2022-09-12T08:13:39.114Z,92101.66
2022-09-12T08:16:14.150Z,92095.38
2022-09-12T08:18:40.958Z,92094.63
2022-09-12T08:21:19.676Z,92089.06
2022-09-12T08:23:46.546Z,92087.59
2022-09-12T08:26:13.788Z,92089.06
2022-09-12T08:28:45.577Z,92083.47
2022-09-12T08:31:14.755Z,92080.81
2022-09-12T08:33:41.541Z,92071.09
2022-09-12T08:36:12.751Z,92071.09
2022-09-12T08:38:42.216Z,92061.38
2022-09-12T08:41:18.261Z,92054.31
2022-09-12T08:44:22.571Z,92055.81
2022-09-12T08:47:07.779Z,92053.13
2022-09-12T08:49:38.023Z,92047.56
2022-09-12T08:52:15.544Z,92043.41
2022-09-12T08:54:45.552Z,92036.50
2022-09-12T08:57:15.284Z,92028.13
2022-09-12T08:59:46.767Z,92024.00
2022-09-12T09:02:42.118Z,92025.44
2022-09-12T09:05:20.374Z,92015.00
2022-09-12T09:07:49.994Z,92016.47
2022-09-12T09:10:46.967Z,92001.16
2022-09-12T09:13:42.538Z,91998.50
2022-09-12T09:16:21.534Z,91997.88
2022-09-12T09:18:49.418Z,91996.53
2022-09-12T09:21:42.445Z,91994.59
2022-09-12T09:24:13.115Z,91984.19
2022-09-12T09:26:46.780Z,91988.44
2022-09-12T09:29:19.774Z,91982.97
2022-09-12T09:31:51.722Z,91976.66
2022-09-12T09:34:21.791Z,91977.38
2022-09-12T09:37:03.363Z,91976.78
2022-09-12T09:39:45.018Z,91969.13
2022-09-12T09:42:30.675Z,91957.97
2022-09-12T09:45:00.136Z,91961.63
2022-09-12T09:47:26.712Z,91955.41
2022-09-12T09:49:53.176Z,91945.56
2022-09-12T09:52:27.624Z,91944.13
2022-09-12T09:55:01.874Z,91945.56
2022-09-12T09:57:39.157Z,91934.38
2022-09-12T10:00:32.418Z,91935.13
2022-09-12T10:03:14.275Z,91931.72
2022-09-12T10:05:55.249Z,91926.25
2022-09-12T10:08:27.440Z,91928.31
2022-09-12T10:11:22.799Z,91924.19
2022-09-12T10:13:58.124Z,91918.59
2022-09-12T10:16:30.736Z,91913.72
2022-09-12T10:19:32.859Z,91908.13
2022-09-12T10:22:00.963Z,91905.34
2022-09-12T10:24:32.752Z,91908.13
2022-09-12T10:27:21.331Z,91894.16
2022-09-12T10:29:53.640Z,91892.09
2022-09-12T10:32:42.463Z,91881.66
2022-09-12T10:35:17.712Z,91885.91
2022-09-12T10:37:58.522Z,91877.53
2022-09-12T10:40:28.331Z,91874.72
2022-09-12T10:43:00.580Z,91876.06
2022-09-12T10:45:35.904Z,91876.81
2022-09-12T10:48:20.736Z,91864.16
2022-09-12T10:50:47.324Z,91861.38
2022-09-12T10:53:20.334Z,91861.25
2022-09-12T10:56:02.311Z,91856.16
2022-09-12T10:58:53.678Z,91847.66
2022-09-12T11:01:32.143Z,91850.44
2022-09-12T11:04:13.879Z,91840.63
2022-09-12T11:06:55.376Z,91843.28
2022-09-12T11:09:26.983Z,91836.97
2022-09-12T11:12:19.741Z,91836.25
2022-09-12T11:14:48.753Z,91830.69
2022-09-12T11:17:48.912Z,91827.75
2022-09-12T11:20:43.276Z,91819.38
2022-09-12T11:23:09.738Z,91824.19
2022-09-12T11:26:04.467Z,91817.16
2022-09-12T11:28:56.955Z,91816.44
2022-09-12T11:31:48.775Z,91808.78
2022-09-12T11:34:44.060Z,91806.59
2022-09-12T11:37:29.031Z,91801.00
2022-09-12T11:40:00.403Z,91805.16
2022-09-12T11:42:35.101Z,91790.44
2022-09-12T11:45:12.809Z,91795.31
2022-09-12T11:47:40.902Z,91775.78
2022-09-12T11:50:20.768Z,91788.38
2022-09-12T11:52:47.250Z,91779.88
2022-09-12T11:55:25.792Z,91785.47
2022-09-12T11:57:59.301Z,91782.69
2022-09-12T12:00:34.250Z,91774.91
2022-09-12T12:03:06.839Z,91781.22
2022-09-12T12:06:04.618Z,91770.69
2022-09-12T12:08:37.718Z,91772.13
2022-09-12T12:11:06.058Z,91778.44
2022-09-12T12:13:34.267Z,91776.97
2022-09-12T12:16:14.170Z,91772.13
2022-09-12T12:18:42.756Z,91771.38
2022-09-12T12:21:27.230Z,91768.59
2022-09-12T12:24:07.327Z,91765.81
2022-09-12T12:26:39.937Z,91753.19
2022-09-12T12:29:13.524Z,91753.19
2022-09-12T12:31:59.163Z,91747.59
2022-09-12T12:34:39.935Z,91749.03
2022-09-12T12:37:22.082Z,91744.81
2022-09-12T12:40:04.964Z,91743.44
2022-09-12T12:42:34.749Z,91742.00
2022-09-12T12:45:01.188Z,91741.28
2022-09-12T12:47:59.961Z,91735.69
2022-09-12T12:50:29.289Z,91728.66
2022-09-12T12:53:17.562Z,91729.38
2022-09-12T12:55:44.014Z,91716.75
2022-09-12T12:58:37.551Z,91723.78
2022-09-12T13:01:10.287Z,91711.16
2022-09-12T13:03:38.796Z,91704.16
2022-09-12T13:06:20.583Z,91704.16
2022-09-12T13:09:00.177Z,91710.44
2022-09-12T13:11:39.805Z,91704.84
2022-09-12T13:14:27.835Z,91695.03
2022-09-12T13:16:59.279Z,91692.97
2022-09-12T13:19:32.506Z,91696.47
2022-09-12T13:22:07.614Z,91687.38
2022-09-12T13:24:42.751Z,91694.41
2022-09-12T13:27:24.371Z,91688.09
2022-09-12T13:30:09.316Z,91687.38
2022-09-12T13:32:36.074Z,91687.38
2022-09-12T13:35:13.414Z,91687.38
2022-09-12T13:37:55.815Z,91681.81
2022-09-12T13:40:28.575Z,91681.81
2022-09-12T13:43:15.349Z,91676.91
2022-09-12T13:45:43.737Z,91673.41
2022-09-12T13:48:30.915Z,91675.47
2022-09-12T13:51:00.618Z,91665.03
2022-09-12T13:53:32.200Z,91659.47
2022-09-12T13:56:00.121Z,91659.47
2022-09-12T13:58:32.944Z,91653.88
2022-09-12T14:01:05.023Z,91653.88
2022-09-12T14:03:56.833Z,91646.81
2022-09-12T14:06:26.328Z,91648.28
2022-09-12T14:08:53.387Z,91653.88
2022-09-12T14:11:28.762Z,91649.59
2022-09-12T14:13:56.213Z,91649.00
2022-09-12T14:16:24.594Z,91660.16
2022-09-12T14:18:54.611Z,91648.28
2022-09-12T14:21:34.116Z,91648.28
2022-09-12T14:24:01.767Z,91646.94
2022-09-12T14:26:34.147Z,91649.72
2022-09-12T14:29:01.896Z,91643.41
2022-09-12T14:31:36.805Z,91651.06
2022-09-12T14:34:19.740Z,91644.13
2022-09-12T14:36:49.941Z,91644.13
2022-09-12T14:39:19.659Z,91649.72
2022-09-12T14:41:49.258Z,91648.28
2022-09-12T14:44:24.285Z,91641.34
2022-09-12T14:46:51.630Z,91647.66
2022-09-12T14:49:21.272Z,91630.19
2022-09-12T14:51:51.423Z,91632.97
2022-09-12T14:54:30.409Z,91645.50
2022-09-12T14:57:19.283Z,91632.22
2022-09-12T14:59:45.773Z,91637.13
2022-09-12T15:02:21.231Z,91636.38
2022-09-12T15:04:49.310Z,91631.53
2022-09-12T15:07:15.811Z,91636.38
2022-09-12T15:09:47.072Z,91630.06
2022-09-12T15:12:13.904Z,91635.66
2022-09-12T15:14:40.423Z,91635.66
2022-09-12T15:17:07.131Z,91642.69
2022-09-12T15:19:33.617Z,91646.81
2022-09-12T15:22:00.157Z,91639.91
2022-09-12T15:24:26.630Z,91648.28
2022-09-12T15:26:53.787Z,91645.50
2022-09-12T15:29:20.318Z,91641.22
2022-09-12T15:31:50.822Z,91642.69
2022-09-12T15:34:17.375Z,91644.75
2022-09-12T15:36:43.858Z,91642.69
2022-09-12T15:39:10.641Z,91651.06
2022-09-12T15:41:38.363Z,91648.28
2022-09-12T15:44:06.193Z,91648.28
2022-09-12T15:46:32.718Z,91643.28
2022-09-12T15:48:59.295Z,91651.78
2022-09-12T15:51:25.778Z,91651.16
2022-09-12T15:53:52.807Z,91648.00
2022-09-12T15:56:21.237Z,91653.06
2022-09-12T15:58:58.245Z,91650.41
2022-09-12T16:01:26.407Z,91646.41
2022-09-12T16:03:52.847Z,91645.06
2022-09-12T16:06:19.332Z,91650.03
2022-09-12T16:08:45.921Z,91653.56
2022-09-12T16:11:19.966Z,91645.28
2022-09-12T16:13:46.457Z,91642.63
2022-09-12T16:16:13.040Z,91645.50
2022-09-12T16:18:40.614Z,91656.66
2022-09-12T16:21:11.287Z,91659.56
2022-09-12T16:23:43.210Z,91660.31
2022-09-12T16:26:09.703Z,91665.28
2022-09-12T16:28:36.378Z,91663.97
2022-09-12T16:31:05.261Z,91665.41
2022-09-12T16:33:32.566Z,91672.44
2022-09-12T16:36:06.363Z,91671.09
2022-09-12T16:38:33.814Z,91678.75
2022-09-12T16:41:05.544Z,91676.69
2022-09-12T16:43:34.051Z,91673.91
2022-09-12T16:46:11.479Z,91680.91
2022-09-12T16:48:42.590Z,91681.66
2022-09-12T16:51:09.795Z,91683.13
2022-09-12T16:53:38.302Z,91686.63
2022-09-12T16:56:06.234Z,91685.19
2022-09-12T16:58:38.502Z,91692.22
2022-09-12T17:01:09.043Z,91700.59
2022-09-12T17:03:36.095Z,91700.59
2022-09-12T17:06:11.996Z,91696.47
2022-09-12T17:08:41.441Z,91702.78
2022-09-12T17:11:19.747Z,91703.50
2022-09-12T17:14:04.356Z,91702.06
2022-09-12T17:16:36.629Z,91710.34
2022-09-12T17:19:04.231Z,91714.44
2022-09-12T17:21:31.287Z,91716.53
2022-09-12T17:23:59.232Z,91713.00
2022-09-12T17:26:26.730Z,91723.47
2022-09-12T17:28:53.419Z,91722.72
2022-09-12T17:31:20.167Z,91724.81
2022-09-12T17:33:46.944Z,91729.03
2022-09-12T17:36:16.590Z,91733.91
2022-09-12T17:38:45.074Z,91733.19
2022-09-12T17:41:17.576Z,91747.16
2022-09-12T17:43:50.818Z,91745.06
2022-09-12T17:46:20.809Z,91759.06
2022-09-12T17:48:55.506Z,91764.63
2022-09-12T17:51:24.867Z,91768.16
2022-09-12T17:54:06.733Z,91780.09
2022-09-12T17:56:34.584Z,91784.94
2022-09-12T17:59:01.541Z,91787.00
2022-09-12T18:01:48.236Z,91780.09
2022-09-12T18:04:15.839Z,91784.31
2022-09-12T18:06:47.911Z,91794.16
2022-09-12T18:09:17.734Z,91798.28
2022-09-12T18:11:45.479Z,91805.34
2022-09-12T18:14:14.243Z,91805.34
2022-09-12T18:16:41.607Z,91806.78
2022-09-12T18:19:08.178Z,91806.78
2022-09-12T18:21:34.767Z,91810.94
2022-09-12T18:24:02.955Z,91817.97
2022-09-12T18:26:30.682Z,91826.34
2022-09-12T18:28:57.912Z,91822.13
2022-09-12T18:31:27.449Z,91823.56
2022-09-12T18:33:54.441Z,91829.16
2022-09-12T18:36:22.031Z,91833.28
2022-09-12T18:38:49.039Z,91840.31
2022-09-12T18:41:19.265Z,91838.88
2022-09-12T18:43:46.565Z,91844.47
2022-09-12T18:46:18.464Z,91849.31
2022-09-12T18:48:45.875Z,91854.91
2022-09-12T18:51:12.292Z,91861.25
2022-09-12T18:53:39.382Z,91855.66
2022-09-12T18:56:09.006Z,91858.44
2022-09-12T18:58:40.641Z,91863.28
2022-09-12T19:01:09.968Z,91868.88
2022-09-12T19:03:36.748Z,91872.41
2022-09-12T19:06:17.675Z,91869.50
2022-09-12T19:08:45.318Z,91868.88
2022-09-12T19:11:12.033Z,91872.41
2022-09-12T19:13:41.196Z,91876.53
2022-09-12T19:16:09.939Z,91883.59
2022-09-12T19:18:37.823Z,91884.91
2022-09-12T19:21:05.279Z,91876.53
2022-09-12T19:23:35.579Z,91876.53
2022-09-12T19:26:05.053Z,91882.13
2022-09-12T19:28:31.743Z,91881.41
2022-09-12T19:30:58.389Z,91882.13
2022-09-12T19:33:25.867Z,91883.47
2022-09-12T19:35:52.479Z,91884.91
2022-09-12T19:38:19.301Z,91882.13
2022-09-12T19:40:56.464Z,91881.41
2022-09-12T19:43:22.958Z,91884.91
2022-09-12T19:45:49.432Z,91875.09
2022-09-12T19:48:15.980Z,91877.88
2022-09-12T19:50:42.503Z,91887.72
2022-09-12T19:53:09.383Z,91884.91
2022-09-12T19:55:36.203Z,91891.25
2022-09-12T19:58:03.172Z,91893.31
2022-09-12T20:00:29.680Z,91888.44
2022-09-12T20:02:56.184Z,91898.88
2022-09-12T20:05:22.670Z,91895.50
2022-09-12T20:07:49.212Z,91905.94
2022-09-12T20:10:15.976Z,91912.28
2022-09-12T20:12:42.499Z,91911.53
2022-09-12T20:15:10.340Z,91910.06
2022-09-12T20:17:36.827Z,91915.66
2022-09-12T20:20:03.767Z,91908.63
2022-09-12T20:22:30.256Z,91912.75
2022-09-12T20:24:56.814Z,91915.53
2022-09-12T20:27:23.331Z,91918.34
2022-09-12T20:29:50.033Z,91916.88
2022-09-12T20:32:18.291Z,91921.03
2022-09-12T20:34:44.840Z,91921.03
2022-09-12T20:37:11.703Z,91913.97
2022-09-12T20:39:38.295Z,91923.81
2022-09-12T20:42:04.971Z,91923.69
2022-09-12T20:44:31.462Z,91923.09
2022-09-12T20:46:58.069Z,91910.44
2022-09-12T20:49:24.676Z,91909.72
2022-09-12T20:51:51.240Z,91922.34
2022-09-12T20:54:17.758Z,91911.06
2022-09-12T20:56:44.334Z,91918.13
2022-09-12T20:59:12.688Z,91910.34
2022-09-12T21:01:39.361Z,91916.63
2022-09-12T21:04:05.939Z,91921.53
2022-09-12T21:06:33.529Z,91927.94
2022-09-12T21:09:00.542Z,91926.63
2022-09-12T21:11:28.839Z,91930.72
2022-09-12T21:13:55.517Z,91929.28
2022-09-12T21:16:23.131Z,91936.31
2022-09-12T21:18:55.028Z,91933.41
2022-09-12T21:21:21.623Z,91931.97
2022-09-12T21:23:48.392Z,91930.50
2022-09-12T21:26:14.876Z,91935.38
2022-09-12T21:28:41.376Z,91940.22
2022-09-12T21:31:08.637Z,91938.78
2022-09-12T21:33:35.119Z,91942.88
2022-09-12T21:36:03.766Z,91940.09
2022-09-12T21:38:30.999Z,91940.09
2022-09-12T21:41:14.980Z,91938.66
2022-09-12T21:43:42.493Z,91935.84
2022-09-12T21:46:10.139Z,91934.38
2022-09-12T21:48:37.302Z,91938.53
2022-09-12T21:51:04.435Z,91942.66
2022-09-12T21:53:31.927Z,91937.06
2022-09-12T21:56:07.157Z,91943.38
2022-09-12T21:58:34.006Z,91940.59
2022-09-12T22:01:01.243Z,91937.06
2022-09-12T22:03:28.752Z,91948.22
2022-09-12T22:06:03.127Z,91941.94
2022-09-12T22:08:31.378Z,91949.56
2022-09-12T22:11:02.964Z,91951.03
2022-09-12T22:13:33.720Z,91944.00
2022-09-12T22:16:03.323Z,91952.38
2022-09-12T22:18:32.200Z,91950.94
2022-09-12T22:21:12.373Z,91952.38
2022-09-12T22:23:57.248Z,91949.44
2022-09-12T22:26:24.056Z,91949.44
2022-09-12T22:28:50.772Z,91953.59
2022-09-12T22:31:17.814Z,91954.31
2022-09-12T22:33:44.911Z,91953.59
2022-09-12T22:36:11.973Z,91947.28
2022-09-12T22:38:38.939Z,91940.94
2022-09-12T22:41:09.251Z,91945.78
2022-09-12T22:43:36.343Z,91943.00
2022-09-12T22:46:07.673Z,91945.78
2022-09-12T22:48:34.570Z,91945.78
2022-09-12T22:51:01.147Z,91944.31
2022-09-12T22:53:27.639Z,91943.59
2022-09-12T22:55:54.214Z,91946.38
2022-09-12T22:58:20.887Z,91949.19
2022-09-12T23:00:51.671Z,91942.88
2022-09-12T23:03:19.251Z,91953.31
2022-09-12T23:05:47.431Z,91953.31
2022-09-12T23:08:15.458Z,91954.75
2022-09-12T23:10:42.389Z,91949.19
2022-09-12T23:13:08.890Z,91947.00
2022-09-12T23:15:35.397Z,91947.72
2022-09-12T23:18:03.930Z,91952.59
2022-09-12T23:20:31.491Z,91957.44
2022-09-12T23:22:58.049Z,91955.97
2022-09-12T23:25:26.170Z,91950.41
2022-09-12T23:27:53.475Z,91950.41
2022-09-12T23:30:21.661Z,91955.97
2022-09-12T23:32:49.186Z,91955.97
2022-09-12T23:35:19.485Z,91948.94
2022-09-12T23:37:46.993Z,91958.78
2022-09-12T23:40:13.835Z,91961.56
2022-09-12T23:42:40.462Z,91958.66
2022-09-12T23:45:07.507Z,91959.38
2022-09-12T23:47:34.035Z,91957.34
2022-09-12T23:50:00.581Z,91957.91
2022-09-12T23:52:27.254Z,91953.81
2022-09-12T23:54:53.809Z,91953.06
2022-09-12T23:57:20.924Z,91954.41
2022-09-12T23:59:47.492Z,91956.47
